Time;durP1;ratioP1;P1;durP2;ratioP2;P2;SDS_P1;SDS_P2;PMS_P1;PMS_P2;Temp;Humidity;BMP_temperature;BMP_pressure;BME280_temperature;BME280_humidity;BME280_pressure;Samples;Min_cycle;Max_cycle;Signal;HPM_P1;HPM_P2
2022/01/01 00:01:01;;;;;;;13.70;9.77;;;;;;;;;;4828627;29;32414;-66
2022/01/01 00:03:29;;;;;;;12.48;9.60;;;;;;;;;;4828646;29;32320;-65
2022/01/01 00:05:57;;;;;;;15.23;10.82;;;;;;;;;;4828121;29;33945;-65
2022/01/01 00:08:25;;;;;;;13.95;10.25;;;;;;;;;;4828875;29;32203;-66
2022/01/01 00:10:54;;;;;;;15.20;11.48;;;;;;;;;;4828678;29;32480;-65
2022/01/01 00:13:22;;;;;;;13.63;10.00;;;;;;;;;;4828397;29;32365;-65
2022/01/01 00:15:50;;;;;;;15.85;10.25;;;;;;;;;;4828387;29;34017;-65
2022/01/01 00:18:19;;;;;;;14.63;10.82;;;;;;;;;;4829076;29;32150;-65
2022/01/01 00:20:47;;;;;;;15.25;10.68;;;;;;;;;;4828449;29;32292;-65
2022/01/01 00:23:15;;;;;;;11.88;10.73;;;;;;;;;;4829185;29;32396;-65
2022/01/01 00:25:43;;;;;;;15.30;11.43;;;;;;;;;;4828875;29;32257;-65
2022/01/01 00:28:12;;;;;;;13.40;11.13;;;;;;;;;;4828035;29;35675;-66
2022/01/01 00:30:40;;;;;;;14.32;12.00;;;;;;;;;;4828956;29;32400;-65
2022/01/01 00:33:08;;;;;;;17.73;11.82;;;;;;;;;;4828064;29;32449;-65
2022/01/01 00:35:38;;;;;;;15.85;11.43;;;;;;;;;;4827895;29;32627;-66
2022/01/01 00:38:05;;;;;;;14.63;11.38;;;;;;;;;;4827695;29;34517;-65
2022/01/01 00:40:33;;;;;;;12.15;10.68;;;;;;;;;;4827717;29;32416;-65
2022/01/01 00:43:02;;;;;;;15.15;11.77;;;;;;;;;;4828110;29;32126;-66
2022/01/01 00:45:30;;;;;;;17.25;11.52;;;;;;;;;;4829209;29;32270;-65
2022/01/01 00:47:58;;;;;;;16.30;11.63;;;;;;;;;;4831403;29;32442;-65
2022/01/01 00:50:26;;;;;;;18.52;12.00;;;;;;;;;;4827189;29;34591;-65
2022/01/01 00:52:56;;;;;;;18.27;11.98;;;;;;;;;;4829863;29;32300;-65
2022/01/01 00:55:23;;;;;;;18.20;12.35;;;;;;;;;;4829761;29;32378;-65
2022/01/01 00:57:51;;;;;;;21.30;12.68;;;;;;;;;;4831145;29;32249;-65
2022/01/01 01:00:19;;;;;;;17.20;13.05;;;;;;;;;;4830653;29;34862;-65
2022/01/01 01:02:47;;;;;;;15.82;11.75;;;;;;;;;;4831309;29;32283;-65
2022/01/01 01:05:15;;;;;;;19.75;13.00;;;;;;;;;;4830910;29;32279;-66
2022/01/01 01:07:43;;;;;;;16.10;11.57;;;;;;;;;;4831218;29;32357;-66
2022/01/01 01:10:14;;;;;;;15.10;11.70;;;;;;;;;;4830851;29;32408;-66
2022/01/01 01:12:44;;;;;;;15.52;11.88;;;;;;;;;;4830720;29;34225;-65
2022/01/01 01:15:17;;;;;;;18.20;12.43;;;;;;;;;;4831155;29;32431;-66
2022/01/01 01:17:47;;;;;;;12.27;11.00;;;;;;;;;;4830905;29;32607;-66
2022/01/01 01:20:16;;;;;;;15.32;11.65;;;;;;;;;;4830844;29;32133;-66
2022/01/01 01:22:44;;;;;;;12.35;11.05;;;;;;;;;;4830940;29;34529;-66
2022/01/01 01:25:14;;;;;;;16.40;11.40;;;;;;;;;;4831093;29;32407;-64
2022/01/01 01:27:43;;;;;;;15.55;11.43;;;;;;;;;;4830592;29;32355;-64
2022/01/01 01:30:15;;;;;;;14.20;11.30;;;;;;;;;;4831020;29;32566;-66
2022/01/01 01:32:43;;;;;;;17.00;12.10;;;;;;;;;;4830998;29;32365;-65
2022/01/01 01:35:13;;;;;;;14.93;11.50;;;;;;;;;;4830330;29;35485;-66
2022/01/01 01:37:41;;;;;;;17.63;12.80;;;;;;;;;;4830254;29;32325;-65
2022/01/01 01:40:10;;;;;;;15.52;11.90;;;;;;;;;;4830965;29;32512;-66
2022/01/01 01:42:39;;;;;;;17.48;12.80;;;;;;;;;;4812820;29;32507;-64
2022/01/01 01:45:12;;;;;;;18.55;11.68;;;;;;;;;;4817741;29;34172;-65
2022/01/01 01:47:40;;;;;;;16.08;12.52;;;;;;;;;;4830683;29;32354;-64
2022/01/01 01:50:11;;;;;;;15.45;11.70;;;;;;;;;;4830301;29;32344;-65
2022/01/01 01:52:43;;;;;;;15.57;12.23;;;;;;;;;;4830436;29;32355;-65
2022/01/01 01:55:12;;;;;;;;;;;;;;;;;;4827483;29;32393;-65
2022/01/01 01:57:42;;;;;;;16.63;11.90;;;;;;;;;;4829191;29;34085;-65
2022/01/01 02:00:27;;;;;;;19.65;13.05;;;;;;;;;;4830658;29;32456;-64
2022/01/01 02:02:55;;;;;;;17.92;12.88;;;;;;;;;;4830286;29;32405;-65
2022/01/01 02:05:23;;;;;;;19.63;13.13;;;;;;;;;;4826429;29;32422;-65
2022/01/01 02:07:52;;;;;;;17.25;13.70;;;;;;;;;;4829841;29;34889;-65
2022/01/01 02:10:20;;;;;;;17.58;12.80;;;;;;;;;;4830123;29;32484;-65
2022/01/01 02:12:53;;;;;;;17.88;12.90;;;;;;;;;;4830129;29;32268;-66
2022/01/01 02:15:41;;;;;;;19.90;13.18;;;;;;;;;;4830411;29;32341;-66
2022/01/01 02:18:09;;;;;;;16.65;12.48;;;;;;;;;;4830579;29;32236;-65
2022/01/01 02:20:38;;;;;;;15.70;13.20;;;;;;;;;;4830006;29;35036;-65
2022/01/01 02:23:11;;;;;;;15.65;12.57;;;;;;;;;;4830008;29;32473;-65
2022/01/01 02:25:39;;;;;;;17.42;12.65;;;;;;;;;;4830142;29;32714;-66
2022/01/01 02:28:08;;;;;;;21.35;12.43;;;;;;;;;;4829998;29;32481;-66
2022/01/01 02:30:35;;;;;;;18.25;13.60;;;;;;;;;;4829723;29;34068;-65
2022/01/01 02:33:03;;;;;;;15.38;12.88;;;;;;;;;;4829722;29;32338;-65
2022/01/01 02:35:31;;;;;;;15.60;11.98;;;;;;;;;;4829721;29;32379;-64
2022/01/01 02:38:01;;;;;;;17.00;12.43;;;;;;;;;;4829377;29;32401;-65
2022/01/01 02:40:29;;;;;;;15.48;12.45;;;;;;;;;;4830360;29;32327;-65
2022/01/01 02:42:57;;;;;;;17.10;12.20;;;;;;;;;;4829450;29;34329;-65
2022/01/01 02:45:25;;;;;;;18.00;12.88;;;;;;;;;;4829427;29;32442;-65
2022/01/01 02:47:52;;;;;;;14.00;11.18;;;;;;;;;;4829936;29;32336;-65
2022/01/01 02:50:20;;;;;;;17.75;12.00;;;;;;;;;;4829590;29;32478;-65
2022/01/01 02:52:48;;;;;;;14.18;11.68;;;;;;;;;;4829384;29;33916;-65
2022/01/01 02:55:18;;;;;;;16.73;11.43;;;;;;;;;;4829945;29;32703;-65
2022/01/01 02:57:46;;;;;;;14.00;12.05;;;;;;;;;;4829727;29;32338;-65
2022/01/01 03:00:16;;;;;;;14.20;11.10;;;;;;;;;;4829590;29;32599;-66
2022/01/01 03:02:45;;;;;;;15.82;12.68;;;;;;;;;;4829813;29;32372;-65
2022/01/01 03:05:13;;;;;;;14.18;11.77;;;;;;;;;;4829204;29;34583;-66
2022/01/01 03:07:40;;;;;;;16.52;12.48;;;;;;;;;;4825604;29;32673;-65
2022/01/01 03:10:10;;;;;;;18.10;12.93;;;;;;;;;;4829716;29;32405;-65
2022/01/01 03:12:39;;;;;;;15.63;12.55;;;;;;;;;;4829080;29;32303;-65
2022/01/01 03:15:08;;;;;;;15.75;12.38;;;;;;;;;;4825321;29;35203;-65
2022/01/01 03:17:36;;;;;;;12.75;11.60;;;;;;;;;;4829790;29;32389;-66
2022/01/01 03:20:06;;;;;;;12.85;11.50;;;;;;;;;;4829093;29;32307;-66
2022/01/01 03:22:34;;;;;;;12.63;11.32;;;;;;;;;;4829437;29;32369;-65
2022/01/01 03:25:02;;;;;;;12.82;11.48;;;;;;;;;;4829478;29;32325;-66
2022/01/01 03:27:31;;;;;;;13.50;11.32;;;;;;;;;;4828924;29;35693;-65
2022/01/01 03:30:00;;;;;;;14.00;12.32;;;;;;;;;;4829204;29;32319;-66
2022/01/01 03:32:28;;;;;;;13.50;12.10;;;;;;;;;;4829062;29;32301;-66
2022/01/01 03:34:56;;;;;;;12.50;11.30;;;;;;;;;;4828941;29;32212;-66
2022/01/01 03:37:25;;;;;;;13.52;11.55;;;;;;;;;;4828911;29;35520;-65
2022/01/01 03:39:53;;;;;;;11.98;10.77;;;;;;;;;;4829509;29;32316;-65
2022/01/01 03:42:21;;;;;;;12.10;10.63;;;;;;;;;;4829220;29;32460;-66
2022/01/01 03:44:48;;;;;;;11.30;10.40;;;;;;;;;;4828695;29;32377;-66
2022/01/01 03:47:18;;;;;;;11.60;10.10;;;;;;;;;;4828008;29;32335;-66
2022/01/01 03:49:46;;;;;;;10.57;9.70;;;;;;;;;;4828520;29;34636;-65
2022/01/01 03:52:14;;;;;;;12.98;10.10;;;;;;;;;;4828554;29;32377;-66
2022/01/01 03:54:42;;;;;;;14.93;10.27;;;;;;;;;;4828950;29;32341;-65
2022/01/01 03:57:10;;;;;;;10.95;10.05;;;;;;;;;;4827845;29;32634;-66
2022/01/01 03:59:37;;;;;;;11.27;10.23;;;;;;;;;;4828377;29;34043;-66
2022/01/01 04:02:05;;;;;;;10.52;9.73;;;;;;;;;;4828368;29;32417;-65
2022/01/01 04:04:35;;;;;;;11.02;10.07;;;;;;;;;;4828683;29;32372;-67
2022/01/01 04:07:04;;;;;;;10.80;9.88;;;;;;;;;;4828806;29;32412;-65
2022/01/01 04:09:32;;;;;;;11.65;10.68;;;;;;;;;;4828851;29;32416;-66
2022/01/01 04:12:00;;;;;;;11.80;10.60;;;;;;;;;;4828831;29;34169;-65
2022/01/01 04:14:28;;;;;;;10.68;9.68;;;;;;;;;;4829139;29;32390;-65
2022/01/01 04:16:57;;;;;;;10.55;9.73;;;;;;;;;;4825053;29;32141;-67
2022/01/01 04:19:38;;;;;;;11.00;10.07;;;;;;;;;;4828561;29;32370;-65
2022/01/01 04:22:09;;;;;;;9.95;9.07;;;;;;;;;;4831615;29;35398;-65
2022/01/01 04:24:37;;;;;;;10.10;9.27;;;;;;;;;;4827343;29;32312;-65
2022/01/01 04:27:05;;;;;;;10.32;9.30;;;;;;;;;;4831482;29;32599;-66
2022/01/01 04:29:34;;;;;;;9.30;8.55;;;;;;;;;;4831460;29;32322;-65
2022/01/01 04:32:04;;;;;;;11.13;8.20;;;;;;;;;;4831297;29;32503;-65
2022/01/01 04:34:32;;;;;;;8.52;7.88;;;;;;;;;;4831547;29;35595;-66
2022/01/01 04:37:02;;;;;;;9.07;8.25;;;;;;;;;;4831055;29;32349;-66
2022/01/01 04:39:32;;;;;;;9.00;8.20;;;;;;;;;;4831012;29;32313;-65
2022/01/01 04:42:00;;;;;;;8.55;7.93;;;;;;;;;;4831228;29;32334;-66
2022/01/01 04:44:27;;;;;;;11.68;9.55;;;;;;;;;;4830752;29;35164;-65
2022/01/01 04:46:55;;;;;;;10.00;9.05;;;;;;;;;;4831183;29;32199;-66
2022/01/01 04:49:23;;;;;;;10.73;9.70;;;;;;;;;;4822553;29;32482;-66
2022/01/01 04:51:51;;;;;;;10.68;9.68;;;;;;;;;;4812152;29;32390;-65
2022/01/01 04:54:19;;;;;;;10.32;9.35;;;;;;;;;;4813301;29;32379;-65
2022/01/01 04:56:49;;;;;;;10.55;9.65;;;;;;;;;;4813074;29;34946;-65
2022/01/01 04:59:17;;;;;;;10.43;9.35;;;;;;;;;;4812754;29;32346;-65
2022/01/01 05:01:46;;;;;;;9.77;9.07;;;;;;;;;;4811960;29;32483;-64
2022/01/01 05:04:14;;;;;;;11.07;9.98;;;;;;;;;;4813261;29;32347;-65
2022/01/01 05:06:42;;;;;;;10.80;9.90;;;;;;;;;;4812173;29;35098;-65
2022/01/01 05:09:10;;;;;;;11.52;10.43;;;;;;;;;;4812010;29;32551;-65
2022/01/01 05:11:38;;;;;;;11.10;10.10;;;;;;;;;;4812290;29;32102;-64
2022/01/01 05:14:07;;;;;;;9.98;9.23;;;;;;;;;;4812667;29;32376;-66
2022/01/01 05:16:35;;;;;;;10.65;9.68;;;;;;;;;;4812600;29;32427;-65
2022/01/01 05:19:03;;;;;;;11.48;10.55;;;;;;;;;;4812525;29;32430;-66
2022/01/01 05:21:33;;;;;;;9.68;8.98;;;;;;;;;;4812064;29;32272;-66
2022/01/01 05:24:01;;;;;;;10.43;9.43;;;;;;;;;;4812835;29;32122;-66
2022/01/01 05:26:30;;;;;;;9.70;8.80;;;;;;;;;;4810837;29;32477;-65
2022/01/01 05:28:57;;;;;;;9.93;9.02;;;;;;;;;;4830727;29;34269;-64
2022/01/01 05:31:27;;;;;;;9.05;8.35;;;;;;;;;;4830412;29;32631;-65
2022/01/01 05:33:56;;;;;;;8.93;8.23;;;;;;;;;;4827016;29;32739;-65
2022/01/01 05:36:24;;;;;;;8.88;8.18;;;;;;;;;;4830808;29;32511;-66
2022/01/01 05:38:52;;;;;;;7.97;7.38;;;;;;;;;;4830110;29;32711;-65
2022/01/01 05:41:19;;;;;;;8.73;8.00;;;;;;;;;;4830458;29;32509;-65
2022/01/01 05:43:47;;;;;;;8.00;7.40;;;;;;;;;;4830724;29;32404;-65
2022/01/01 05:46:15;;;;;;;7.35;6.75;;;;;;;;;;4830462;29;32325;-65
2022/01/01 05:48:45;;;;;;;8.25;7.65;;;;;;;;;;4830714;29;32386;-65
2022/01/01 05:51:13;;;;;;;8.77;7.97;;;;;;;;;;4830820;29;35199;-65
2022/01/01 05:53:41;;;;;;;8.48;7.75;;;;;;;;;;4830008;29;32418;-64
2022/01/01 05:56:09;;;;;;;7.65;7.00;;;;;;;;;;4830570;29;32268;-65
2022/01/01 05:58:37;;;;;;;9.05;8.13;;;;;;;;;;4830668;29;32371;-65
2022/01/01 06:01:04;;;;;;;8.88;8.15;;;;;;;;;;4830348;29;32401;-66
2022/01/01 06:03:32;;;;;;;9.73;8.90;;;;;;;;;;4830306;29;32133;-66
2022/01/01 06:06:02;;;;;;;9.45;8.65;;;;;;;;;;4830562;29;32441;-65
2022/01/01 06:08:30;;;;;;;9.57;8.75;;;;;;;;;;4830004;29;32415;-66
2022/01/01 06:10:58;;;;;;;10.20;9.00;;;;;;;;;;4830656;29;32119;-64
2022/01/01 06:13:26;;;;;;;10.00;9.10;;;;;;;;;;4830212;29;34484;-65
2022/01/01 06:15:54;;;;;;;11.32;10.23;;;;;;;;;;4830177;29;32335;-65
2022/01/01 06:18:21;;;;;;;11.00;9.90;;;;;;;;;;4830257;29;32279;-66
2022/01/01 06:20:49;;;;;;;11.55;10.52;;;;;;;;;;4830483;29;32389;-67
2022/01/01 06:23:19;;;;;;;10.98;10.07;;;;;;;;;;4829518;29;32264;-65
2022/01/01 06:25:46;;;;;;;11.05;10.15;;;;;;;;;;4830272;29;32412;-66
2022/01/01 06:28:14;;;;;;;10.70;9.85;;;;;;;;;;4830420;29;32387;-67
2022/01/01 06:30:43;;;;;;;10.63;9.73;;;;;;;;;;4829970;29;32421;-65
2022/01/01 06:33:12;;;;;;;10.38;9.48;;;;;;;;;;4831107;29;32479;-65
2022/01/01 06:35:40;;;;;;;10.43;9.52;;;;;;;;;;4829978;29;34159;-66
2022/01/01 06:38:09;;;;;;;11.25;10.10;;;;;;;;;;4825102;29;32564;-65
2022/01/01 06:40:40;;;;;;;9.75;8.95;;;;;;;;;;4829767;29;32299;-65
2022/01/01 06:43:08;;;;;;;10.27;9.32;;;;;;;;;;4829156;29;32420;-65
2022/01/01 06:45:37;;;;;;;9.48;8.57;;;;;;;;;;4825884;29;32110;-64
2022/01/01 06:48:05;;;;;;;9.68;8.90;;;;;;;;;;4829936;29;32504;-65
2022/01/01 06:50:34;;;;;;;10.18;9.35;;;;;;;;;;4830110;29;32408;-65
2022/01/01 06:53:02;;;;;;;9.25;8.45;;;;;;;;;;4829807;29;32257;-65
2022/01/01 06:55:30;;;;;;;9.80;8.65;;;;;;;;;;4830050;29;32310;-65
2022/01/01 06:57:59;;;;;;;9.35;8.55;;;;;;;;;;4829673;29;33899;-66
2022/01/01 07:00:27;;;;;;;9.15;8.45;;;;;;;;;;4829684;29;32394;-66
2022/01/01 07:02:55;;;;;;;10.50;9.50;;;;;;;;;;4829681;29;32469;-65
2022/01/01 07:05:23;;;;;;;11.10;10.10;;;;;;;;;;4829301;29;32341;-66
2022/01/01 07:07:51;;;;;;;10.52;9.63;;;;;;;;;;4829028;29;32350;-66
2022/01/01 07:10:19;;;;;;;10.07;9.30;;;;;;;;;;4829872;29;32346;-66
2022/01/01 07:12:47;;;;;;;11.38;10.18;;;;;;;;;;4829114;29;32291;-67
2022/01/01 07:15:16;;;;;;;10.48;9.57;;;;;;;;;;4829367;29;32367;-65
2022/01/01 07:17:45;;;;;;;10.93;10.02;;;;;;;;;;4829495;29;32801;-66
2022/01/01 07:20:13;;;;;;;11.32;10.45;;;;;;;;;;4829331;29;34307;-66
2022/01/01 07:22:42;;;;;;;11.10;10.10;;;;;;;;;;4829489;29;32366;-67
2022/01/01 07:25:12;;;;;;;11.40;10.38;;;;;;;;;;4829697;29;32369;-67
2022/01/01 07:27:40;;;;;;;13.02;11.77;;;;;;;;;;4829617;29;32543;-66
2022/01/01 07:30:10;;;;;;;12.38;11.32;;;;;;;;;;4828735;29;35520;-66
2022/01/01 07:32:41;;;;;;;13.07;11.77;;;;;;;;;;4828968;29;32338;-66
2022/01/01 07:35:10;;;;;;;13.15;11.95;;;;;;;;;;4829324;29;32449;-67
2022/01/01 07:37:38;;;;;;;12.63;11.48;;;;;;;;;;4828114;29;32291;-67
2022/01/01 07:40:10;;;;;;;13.23;11.95;;;;;;;;;;4828267;29;32299;-66
2022/01/01 07:42:38;;;;;;;13.07;11.63;;;;;;;;;;4827855;29;34772;-65
2022/01/01 07:45:08;;;;;;;13.07;11.85;;;;;;;;;;4827712;29;32415;-66
2022/01/01 07:47:36;;;;;;;12.25;11.23;;;;;;;;;;4823746;29;32417;-66
2022/01/01 07:50:07;;;;;;;14.18;12.68;;;;;;;;;;4828323;29;32335;-65
2022/01/01 07:52:35;;;;;;;12.93;11.65;;;;;;;;;;4827589;29;35439;-66
2022/01/01 07:55:03;;;;;;;12.13;11.13;;;;;;;;;;4828626;29;32271;-68
2022/01/01 07:57:31;;;;;;;14.63;11.88;;;;;;;;;;4830826;29;32359;-67
2022/01/01 07:59:59;;;;;;;13.20;11.90;;;;;;;;;;4830416;29;32411;-66
2022/01/01 08:02:27;;;;;;;13.57;12.23;;;;;;;;;;4830952;29;32362;-66
2022/01/01 08:04:55;;;;;;;14.07;12.40;;;;;;;;;;4831192;29;33919;-66
2022/01/01 08:07:24;;;;;;;12.50;11.30;;;;;;;;;;4830673;29;32085;-66
2022/01/01 08:09:52;;;;;;;11.68;10.60;;;;;;;;;;4831160;29;32200;-65
2022/01/01 08:12:20;;;;;;;12.02;10.82;;;;;;;;;;4831062;29;32157;-66
2022/01/01 08:14:48;;;;;;;12.93;11.68;;;;;;;;;;4830781;29;34095;-66
2022/01/01 08:17:15;;;;;;;12.35;11.15;;;;;;;;;;4830925;29;32366;-66
2022/01/01 08:19:43;;;;;;;13.65;12.02;;;;;;;;;;4830939;29;32496;-68
2022/01/01 08:22:13;;;;;;;13.02;11.57;;;;;;;;;;4831045;29;32450;-67
2022/01/01 08:24:43;;;;;;;12.00;10.82;;;;;;;;;;4831030;29;32303;-67
2022/01/01 08:27:11;;;;;;;11.75;10.55;;;;;;;;;;4830589;29;34013;-66
2022/01/01 08:29:39;;;;;;;11.98;10.73;;;;;;;;;;4830297;29;32338;-67
2022/01/01 08:32:08;;;;;;;12.57;11.27;;;;;;;;;;4830630;29;32447;-65
2022/01/01 08:34:36;;;;;;;11.45;10.38;;;;;;;;;;4830458;29;32345;-65
2022/01/01 08:37:04;;;;;;;11.68;10.52;;;;;;;;;;4830316;29;35144;-65
2022/01/01 08:39:33;;;;;;;12.65;11.18;;;;;;;;;;4831170;29;32392;-66
2022/01/01 08:42:03;;;;;;;11.80;10.65;;;;;;;;;;4831637;29;32384;-66
2022/01/01 08:44:31;;;;;;;12.35;11.15;;;;;;;;;;4830934;29;32187;-64
2022/01/01 08:46:59;;;;;;;11.18;10.10;;;;;;;;;;4831886;29;32263;-66
2022/01/01 08:49:27;;;;;;;11.25;10.13;;;;;;;;;;4827050;29;34382;-66
2022/01/01 08:51:56;;;;;;;11.43;10.52;;;;;;;;;;4830697;29;32343;-66
2022/01/01 08:54:23;;;;;;;14.80;10.38;;;;;;;;;;4815170;29;33461;-66
2022/01/01 08:56:51;;;;;;;11.18;10.15;;;;;;;;;;4819357;29;32790;-66
2022/01/01 08:59:21;;;;;;;12.00;10.90;;;;;;;;;;4824187;29;34529;-66
2022/01/01 09:01:49;;;;;;;10.48;9.60;;;;;;;;;;4822069;29;32508;-65
2022/01/01 09:04:17;;;;;;;9.18;8.38;;;;;;;;;;4822543;29;31926;-67
2022/01/01 09:06:45;;;;;;;10.18;9.15;;;;;;;;;;4822638;29;32439;-66
2022/01/01 09:09:13;;;;;;;10.77;9.75;;;;;;;;;;4814349;29;32663;-67
2022/01/01 09:11:41;;;;;;;8.88;8.18;;;;;;;;;;4822803;29;34321;-67
2022/01/01 09:14:09;;;;;;;9.90;8.90;;;;;;;;;;4819639;29;32506;-67
2022/01/01 09:16:38;;;;;;;9.00;8.27;;;;;;;;;;4820949;29;32452;-67
2022/01/01 09:19:06;;;;;;;9.13;8.32;;;;;;;;;;4820133;29;32453;-66
2022/01/01 09:21:34;;;;;;;9.43;8.68;;;;;;;;;;4817031;29;33991;-65
2022/01/01 09:24:02;;;;;;;8.43;7.78;;;;;;;;;;4819509;29;33420;-66
2022/01/01 09:26:30;;;;;;;8.63;7.75;;;;;;;;;;4812694;29;32804;-68
2022/01/01 09:28:58;;;;;;;9.55;8.68;;;;;;;;;;4824413;29;32567;-64
2022/01/01 09:31:26;;;;;;;8.73;8.02;;;;;;;;;;4817121;29;32469;-68
2022/01/01 09:33:55;;;;;;;8.93;8.18;;;;;;;;;;4820827;29;34204;-68
2022/01/01 09:36:23;;;;;;;8.98;8.27;;;;;;;;;;4822383;29;32539;-67
2022/01/01 09:38:51;;;;;;;9.38;8.57;;;;;;;;;;4820449;29;32638;-66
2022/01/01 09:41:19;;;;;;;8.10;7.35;;;;;;;;;;4819099;29;32769;-67
2022/01/01 09:43:47;;;;;;;8.77;8.07;;;;;;;;;;4820718;29;34170;-66
2022/01/01 09:46:16;;;;;;;8.90;7.97;;;;;;;;;;4823069;29;32407;-66
2022/01/01 09:48:44;;;;;;;8.07;7.35;;;;;;;;;;4820793;29;32311;-67
2022/01/01 09:51:14;;;;;;;8.30;7.68;;;;;;;;;;4820674;29;32252;-68
2022/01/01 09:53:43;;;;;;;7.32;6.82;;;;;;;;;;4822094;29;32938;-67
2022/01/01 09:56:11;;;;;;;7.60;7.00;;;;;;;;;;4824914;29;34350;-66
2022/01/01 09:58:39;;;;;;;8.05;7.28;;;;;;;;;;4818276;29;32427;-65
2022/01/01 10:01:08;;;;;;;7.80;7.20;;;;;;;;;;4821117;29;32596;-67
2022/01/01 10:03:38;;;;;;;7.60;7.00;;;;;;;;;;4823723;29;32370;-66
2022/01/01 10:06:08;;;;;;;7.97;7.28;;;;;;;;;;4817537;29;35057;-65
2022/01/01 10:08:40;;;;;;;7.80;7.18;;;;;;;;;;4823132;29;33051;-66
2022/01/01 10:11:09;;;;;;;7.28;6.78;;;;;;;;;;4818048;29;32477;-67
2022/01/01 10:13:39;;;;;;;7.15;6.57;;;;;;;;;;4819701;29;32532;-66
2022/01/01 10:16:09;;;;;;;6.63;6.13;;;;;;;;;;4820233;29;32600;-67
2022/01/01 10:18:39;;;;;;;6.82;6.28;;;;;;;;;;4820168;29;34697;-66
2022/01/01 10:21:10;;;;;;;6.18;5.78;;;;;;;;;;4815319;29;32525;-66
2022/01/01 10:23:42;;;;;;;7.00;5.78;;;;;;;;;;4815796;29;32417;-66
2022/01/01 10:29:16;;;;;;;6.82;6.30;;;;;;;;;;4818762;29;35220;-66
2022/01/01 10:31:58;;;;;;;6.60;6.03;;;;;;;;;;4817163;29;32491;-67
2022/01/01 10:34:32;;;;;;;6.38;5.88;;;;;;;;;;4820427;29;32368;-66
2022/01/01 10:37:01;;;;;;;6.82;6.22;;;;;;;;;;4817214;29;32447;-67
2022/01/01 10:39:31;;;;;;;6.50;5.93;;;;;;;;;;4814800;29;32377;-66
2022/01/01 10:42:00;;;;;;;7.00;6.43;;;;;;;;;;4819478;29;34212;-64
2022/01/01 10:44:30;;;;;;;7.35;6.65;;;;;;;;;;4817555;29;32725;-67
2022/01/01 10:46:59;;;;;;;7.30;6.80;;;;;;;;;;4811221;29;32548;-66
2022/01/01 10:49:34;;;;;;;6.70;6.20;;;;;;;;;;4820397;29;32474;-65
2022/01/01 10:52:23;;;;;;;6.97;6.47;;;;;;;;;;4813605;29;35703;-65
2022/01/01 10:54:54;;;;;;;6.97;6.50;;;;;;;;;;4820816;29;32264;-66
2022/01/01 10:57:34;;;;;;;7.43;6.88;;;;;;;;;;4812279;29;32395;-65
2022/01/01 11:00:13;;;;;;;7.10;6.60;;;;;;;;;;4817227;29;32830;-65
2022/01/01 11:02:44;;;;;;;7.53;6.97;;;;;;;;;;4818464;29;32635;-67
2022/01/01 11:05:12;;;;;;;7.55;7.05;;;;;;;;;;4820110;29;34409;-66
2022/01/01 11:07:51;;;;;;;7.72;7.03;;;;;;;;;;4811558;29;32918;-66
2022/01/01 11:10:22;;;;;;;7.35;6.78;;;;;;;;;;4814294;29;32357;-66
2022/01/01 11:12:51;;;;;;;8.80;7.38;;;;;;;;;;4813783;29;32631;-65
2022/01/01 11:15:20;;;;;;;7.43;6.85;;;;;;;;;;4818452;29;34921;-66
2022/01/01 11:17:49;;;;;;;8.05;7.35;;;;;;;;;;4815179;29;32779;-67
2022/01/01 11:20:18;;;;;;;8.32;7.63;;;;;;;;;;4813996;29;32593;-66
2022/01/01 11:22:47;;;;;;;7.60;7.05;;;;;;;;;;4812763;29;32393;-66
2022/01/01 11:25:15;;;;;;;7.40;6.90;;;;;;;;;;4814684;29;32470;-65
2022/01/01 11:27:45;;;;;;;8.15;7.57;;;;;;;;;;4812387;29;35218;-65
2022/01/01 11:30:14;;;;;;;7.72;7.13;;;;;;;;;;4814243;29;32678;-67
2022/01/01 11:32:50;;;;;;;7.75;7.15;;;;;;;;;;4821070;29;32381;-68
2022/01/01 11:35:22;;;;;;;7.57;6.97;;;;;;;;;;4820976;29;32471;-66
2022/01/01 11:38:06;;;;;;;7.85;7.35;;;;;;;;;;4813222;29;35413;-69
2022/01/01 11:40:55;;;;;;;8.15;7.65;;;;;;;;;;4818260;29;32514;-65
2022/01/01 11:43:51;;;;;;;7.85;7.20;;;;;;;;;;4816798;29;32529;-65
2022/01/01 11:46:22;;;;;;;8.20;7.63;;;;;;;;;;4803992;29;32428;-68
2022/01/01 11:48:53;;;;;;;8.43;7.82;;;;;;;;;;4818958;29;32640;-67
2022/01/01 11:51:36;;;;;;;9.23;8.38;;;;;;;;;;4810741;29;34849;-68
2022/01/01 11:54:22;;;;;;;9.05;8.45;;;;;;;;;;4820754;29;32712;-65
2022/01/01 11:57:18;;;;;;;9.45;8.75;;;;;;;;;;4812039;29;34285;-66
2022/01/01 12:00:00;;;;;;;10.40;9.60;;;;;;;;;;4814320;29;32370;-65
2022/01/01 12:02:44;;;;;;;11.00;10.20;;;;;;;;;;4814995;29;34593;-67
2022/01/01 12:05:21;;;;;;;10.80;9.98;;;;;;;;;;4815095;29;32595;-67
2022/01/01 12:07:55;;;;;;;11.90;10.80;;;;;;;;;;4812600;29;32503;-67
2022/01/01 12:10:33;;;;;;;12.25;11.30;;;;;;;;;;4813822;29;32427;-65
2022/01/01 12:13:04;;;;;;;11.65;10.85;;;;;;;;;;4814407;29;32851;-64
2022/01/01 12:15:49;;;;;;;12.30;11.33;;;;;;;;;;4821324;29;34921;-66
2022/01/01 12:18:20;;;;;;;11.95;11.02;;;;;;;;;;4811205;29;32446;-66
2022/01/01 12:20:52;;;;;;;12.38;11.45;;;;;;;;;;4813958;29;32557;-65
2022/01/01 12:23:22;;;;;;;12.43;11.50;;;;;;;;;;4819178;29;32523;-66
2022/01/01 12:25:53;;;;;;;17.25;13.05;;;;;;;;;;4817838;29;35573;-66
2022/01/01 12:28:25;;;;;;;13.20;12.20;;;;;;;;;;4814018;29;32409;-66
2022/01/01 12:30:55;;;;;;;;;;;;;;;;;;4812167;29;32336;-65
2022/01/01 12:33:27;;;;;;;13.57;12.40;;;;;;;;;;4819953;29;32356;-66
2022/01/01 12:35:57;;;;;;;12.50;11.52;;;;;;;;;;4819296;29;32504;-65
2022/01/01 12:38:27;;;;;;;13.18;12.05;;;;;;;;;;4817056;29;35417;-66
2022/01/01 12:41:13;;;;;;;13.32;12.15;;;;;;;;;;4822974;29;32525;-66
2022/01/01 12:43:49;;;;;;;12.02;11.02;;;;;;;;;;4816202;29;32506;-65
2022/01/01 12:46:22;;;;;;;13.13;12.10;;;;;;;;;;4823959;29;32507;-65
2022/01/01 12:48:51;;;;;;;12.55;11.55;;;;;;;;;;4816297;29;35507;-65
2022/01/01 12:51:23;;;;;;;10.85;10.05;;;;;;;;;;4813770;29;32769;-65
2022/01/01 12:53:57;;;;;;;11.05;10.25;;;;;;;;;;4821930;29;32238;-65
2022/01/01 12:56:27;;;;;;;12.45;11.55;;;;;;;;;;4823447;29;32553;-65
2022/01/01 12:58:57;;;;;;;12.43;11.35;;;;;;;;;;4818624;29;32355;-67
2022/01/01 13:01:28;;;;;;;12.90;10.95;;;;;;;;;;4818322;29;34257;-65
2022/01/01 13:03:59;;;;;;;11.57;10.43;;;;;;;;;;4819991;29;32536;-66
2022/01/01 13:06:31;;;;;;;12.00;10.95;;;;;;;;;;4825903;29;32654;-65
2022/01/01 13:09:00;;;;;;;;;;;;;;;;;;4817605;29;32502;-64
2022/01/01 13:11:28;;;;;;;10.38;9.48;;;;;;;;;;4815127;29;34595;-65
2022/01/01 13:13:57;;;;;;;10.07;9.38;;;;;;;;;;4810453;29;33044;-65
2022/01/01 13:16:27;;;;;;;10.25;9.50;;;;;;;;;;4815277;29;32511;-65
2022/01/01 13:18:55;;;;;;;9.40;8.68;;;;;;;;;;4813620;29;32595;-65
2022/01/01 13:21:24;;;;;;;8.40;7.80;;;;;;;;;;4819293;29;32464;-66
2022/01/01 13:23:53;;;;;;;8.88;8.27;;;;;;;;;;4824410;29;33924;-65
2022/01/01 13:26:21;;;;;;;7.70;7.20;;;;;;;;;;4814979;29;32638;-64
2022/01/01 13:28:50;;;;;;;8.10;7.50;;;;;;;;;;4819348;29;32933;-67
2022/01/01 13:31:18;;;;;;;7.82;7.22;;;;;;;;;;4816718;29;32486;-66
2022/01/01 13:33:51;;;;;;;7.63;7.13;;;;;;;;;;4818159;29;35103;-67
2022/01/01 13:36:34;;;;;;;7.20;6.70;;;;;;;;;;4824641;29;32894;-66
2022/01/01 13:39:04;;;;;;;8.02;7.47;;;;;;;;;;4817655;29;32747;-65
2022/01/01 13:41:37;;;;;;;7.30;6.80;;;;;;;;;;4820785;29;32382;-66
2022/01/01 13:44:21;;;;;;;7.13;6.63;;;;;;;;;;4817769;29;32491;-66
2022/01/01 13:46:49;;;;;;;6.22;5.82;;;;;;;;;;4817211;29;34526;-65
2022/01/01 13:49:19;;;;;;;6.25;5.85;;;;;;;;;;4822881;29;33038;-65
2022/01/01 13:51:58;;;;;;;5.90;5.43;;;;;;;;;;4812217;29;32460;-65
2022/01/01 13:54:27;;;;;;;5.70;5.38;;;;;;;;;;4820559;29;32353;-64
2022/01/01 13:57:05;;;;;;;5.32;4.93;;;;;;;;;;4816282;29;34232;-66
2022/01/01 13:59:34;;;;;;;4.75;4.45;;;;;;;;;;4814179;29;32584;-65
2022/01/01 14:02:06;;;;;;;5.53;5.13;;;;;;;;;;4819502;29;32530;-65
2022/01/01 14:04:39;;;;;;;;;;;;;;;;;;4814243;29;32260;-65
2022/01/01 14:07:12;;;;;;;4.47;4.18;;;;;;;;;;4814258;29;32511;-67
2022/01/01 14:09:59;;;;;;;4.55;4.25;;;;;;;;;;4815756;29;34831;-65
2022/01/01 14:12:30;;;;;;;4.20;3.90;;;;;;;;;;4812999;29;32677;-66
2022/01/01 14:15:07;;;;;;;4.17;3.87;;;;;;;;;;4812993;29;32332;-65
2022/01/01 14:17:58;;;;;;;4.22;4.03;;;;;;;;;;4826663;29;32527;-67
2022/01/01 14:20:30;;;;;;;4.00;3.70;;;;;;;;;;4820545;29;33961;-66
2022/01/01 14:22:58;;;;;;;3.90;3.70;;;;;;;;;;4820362;29;32398;-66
2022/01/01 14:25:28;;;;;;;3.47;3.20;;;;;;;;;;4817547;29;32548;-65
2022/01/01 14:28:00;;;;;;;3.80;3.60;;;;;;;;;;4822228;29;32688;-66
2022/01/01 14:30:28;;;;;;;3.95;3.70;;;;;;;;;;4817683;29;32561;-66
2022/01/01 14:32:58;;;;;;;3.75;3.55;;;;;;;;;;4818797;29;33958;-65
2022/01/01 14:35:32;;;;;;;3.13;2.92;;;;;;;;;;4815800;29;32299;-66
2022/01/01 14:38:01;;;;;;;3.28;3.08;;;;;;;;;;4813639;29;32485;-65
2022/01/01 14:40:29;;;;;;;3.22;3.03;;;;;;;;;;4819581;29;32629;-66
2022/01/01 14:42:57;;;;;;;3.28;3.08;;;;;;;;;;4820302;29;35346;-65
2022/01/01 14:45:27;;;;;;;3.55;3.35;;;;;;;;;;4817091;29;32391;-65
2022/01/01 14:48:03;;;;;;;3.13;2.92;;;;;;;;;;4818712;29;32534;-65
2022/01/01 14:50:40;;;;;;;2.85;2.65;;;;;;;;;;4819317;29;32803;-65